Time;durP1;ratioP1;P1;durP2;ratioP2;P2;SDS_P1;SDS_P2;PMS_P1;PMS_P2;Temp;Humidity;BMP_temperature;BMP_pressure;BME280_temperature;BME280_humidity;BME280_pressure;Samples;Min_cycle;Max_cycle;Signal;HPM_P1;HPM_P2
2023/07/14 00:07:26;;;;;;;0.68;0.55;;;;;;;;;;12848152;22;20353;-90
2023/07/14 00:12:49;;;;;;;1.20;0.40;;;;;;;;;;12828572;23;20020;-91
2023/07/14 00:17:57;;;;;;;1.13;0.38;;;;;;;;;;12845396;23;20020;-91
2023/07/14 00:23:15;;;;;;;2.50;0.47;;;;;;;;;;12820347;23;20357;-91
2023/07/14 00:28:38;;;;;;;0.70;0.55;;;;;;;;;;12848332;23;20024;-90
2023/07/14 00:33:57;;;;;;;0.95;0.60;;;;;;;;;;12828918;23;20524;-91
2023/07/14 00:39:10;;;;;;;0.68;0.55;;;;;;;;;;12820099;23;20107;-91
2023/07/14 00:44:19;;;;;;;1.25;0.50;;;;;;;;;;12820410;23;20040;-91
2023/07/14 00:49:46;;;;;;;3.58;0.40;;;;;;;;;;12820496;23;20029;-91
2023/07/14 00:55:35;;;;;;;0.60;0.43;;;;;;;;;;12819858;23;20020;-91
2023/07/14 01:01:22;;;;;;;1.00;0.60;;;;;;;;;;12813946;23;20462;-91
2023/07/14 01:06:43;;;;;;;0.52;0.47;;;;;;;;;;12818533;23;20028;-91
2023/07/14 01:11:51;;;;;;;0.77;0.50;;;;;;;;;;12848599;23;20071;-91
2023/07/14 01:17:19;;;;;;;0.90;0.57;;;;;;;;;;12820294;23;20128;-91
2023/07/14 01:22:58;;;;;;;0.77;0.70;;;;;;;;;;12829767;23;20024;-90
2023/07/14 01:28:19;;;;;;;1.30;0.52;;;;;;;;;;12845283;23;20024;-90
2023/07/14 01:44:33;;;;;;;1.08;0.60;;;;;;;;;;12819496;23;20025;-91
2023/07/14 01:49:50;;;;;;;1.25;0.80;;;;;;;;;;12844800;23;20469;-91
2023/07/14 01:55:31;;;;;;;1.10;0.60;;;;;;;;;;12820622;23;20528;-90
2023/07/14 02:01:05;;;;;;;1.58;0.60;;;;;;;;;;12802387;23;20264;-90
2023/07/14 02:06:33;;;;;;;1.50;0.50;;;;;;;;;;12844377;23;20092;-90
2023/07/14 02:11:46;;;;;;;1.02;0.52;;;;;;;;;;12844639;23;20417;-90
2023/07/14 02:17:08;;;;;;;1.10;0.70;;;;;;;;;;12821327;23;20127;-90
2023/07/14 02:22:19;;;;;;;1.08;0.43;;;;;;;;;;12844668;23;20529;-91
2023/07/14 02:27:40;;;;;;;1.05;0.50;;;;;;;;;;12847162;23;20025;-91
2023/07/14 02:32:58;;;;;;;0.98;0.70;;;;;;;;;;12823229;23;20017;-92
2023/07/14 02:38:22;;;;;;;0.90;0.52;;;;;;;;;;12848389;23;20016;-90
2023/07/14 02:43:42;;;;;;;0.90;0.40;;;;;;;;;;12822047;23;20024;-90
2023/07/14 02:48:56;;;;;;;1.33;0.60;;;;;;;;;;12847386;23;20028;-89
2023/07/14 02:54:20;;;;;;;1.70;0.50;;;;;;;;;;12846969;23;20016;-89
2023/07/14 02:59:31;;;;;;;0.80;0.70;;;;;;;;;;12821307;23;20087;-90
2023/07/14 03:04:45;;;;;;;0.82;0.52;;;;;;;;;;12822567;23;20390;-90
2023/07/14 03:10:06;;;;;;;1.80;0.70;;;;;;;;;;12860738;23;20028;-91
2023/07/14 03:15:38;;;;;;;1.92;0.70;;;;;;;;;;12822651;23;20035;-90
2023/07/14 03:21:05;;;;;;;1.83;0.60;;;;;;;;;;12822318;23;20028;-90
2023/07/14 03:26:41;;;;;;;1.35;0.40;;;;;;;;;;12820419;23;20760;-90
2023/07/14 03:32:02;;;;;;;0.90;0.52;;;;;;;;;;12822360;23;20032;-90
2023/07/14 03:37:26;;;;;;;1.65;0.77;;;;;;;;;;12846602;23;20055;-90
2023/07/14 03:42:33;;;;;;;0.43;0.40;;;;;;;;;;12780802;23;20382;-91
2023/07/14 03:47:46;;;;;;;2.45;1.10;;;;;;;;;;12821166;23;20024;-91
2023/07/14 03:53:10;;;;;;;1.10;0.90;;;;;;;;;;12845354;23;20248;-91
2023/07/14 03:58:28;;;;;;;2.20;0.73;;;;;;;;;;12845630;23;20357;-90
2023/07/14 04:03:47;;;;;;;2.13;0.65;;;;;;;;;;12820549;23;20028;-91
2023/07/14 04:09:02;;;;;;;0.60;0.50;;;;;;;;;;12821252;23;20027;-90
2023/07/14 04:14:26;;;;;;;1.45;0.70;;;;;;;;;;12820228;23;20029;-90
2023/07/14 04:19:38;;;;;;;0.68;0.40;;;;;;;;;;12845081;23;20040;-90
2023/07/14 04:24:59;;;;;;;1.15;0.60;;;;;;;;;;12819158;23;20028;-90
2023/07/14 04:30:19;;;;;;;1.63;0.70;;;;;;;;;;12855395;23;20020;-90
2023/07/14 04:35:35;;;;;;;2.15;0.60;;;;;;;;;;12820047;23;20063;-91
2023/07/14 04:40:50;;;;;;;0.68;0.60;;;;;;;;;;12819340;23;20485;-90
2023/07/14 04:46:02;;;;;;;1.45;0.65;;;;;;;;;;12810063;23;20048;-91
2023/07/14 04:51:06;;;;;;;0.70;0.50;;;;;;;;;;12819424;23;20024;-91
2023/07/14 04:56:19;;;;;;;1.58;0.70;;;;;;;;;;12820889;23;20024;-90
2023/07/14 05:01:30;;;;;;;0.55;0.50;;;;;;;;;;12847054;23;20075;-90
2023/07/14 05:06:45;;;;;;;1.15;0.70;;;;;;;;;;12846184;23;20028;-91
2023/07/14 05:11:50;;;;;;;1.58;0.40;;;;;;;;;;12848669;23;20066;-91
2023/07/14 05:16:54;;;;;;;0.45;0.45;;;;;;;;;;12824629;23;20024;-91
2023/07/14 05:21:57;;;;;;;0.70;0.50;;;;;;;;;;12849816;23;20080;-90
2023/07/14 05:27:02;;;;;;;0.68;0.60;;;;;;;;;;12853424;23;20031;-91
2023/07/14 05:32:06;;;;;;;3.65;0.35;;;;;;;;;;12823163;23;20074;-90
2023/07/14 05:37:11;;;;;;;2.90;0.57;;;;;;;;;;12824098;23;20393;-91
2023/07/14 05:42:16;;;;;;;4.05;0.57;;;;;;;;;;12849613;23;20025;-91
2023/07/14 05:47:23;;;;;;;1.85;0.60;;;;;;;;;;12824649;23;20025;-91
2023/07/14 05:52:27;;;;;;;0.60;0.50;;;;;;;;;;12824644;23;20023;-91
2023/07/14 05:57:32;;;;;;;3.22;0.57;;;;;;;;;;12849432;23;20024;-92
2023/07/14 06:02:37;;;;;;;0.80;0.70;;;;;;;;;;12852049;23;20401;-92
2023/07/14 06:07:41;;;;;;;1.25;0.47;;;;;;;;;;12854100;23;20458;-90
2023/07/14 06:12:46;;;;;;;1.52;0.70;;;;;;;;;;12827511;23;20473;-90
2023/07/14 06:17:49;;;;;;;2.45;0.70;;;;;;;;;;12828398;23;20401;-92
2023/07/14 06:22:53;;;;;;;3.10;0.70;;;;;;;;;;12873771;23;20070;-91
2023/07/14 06:27:58;;;;;;;1.88;0.60;;;;;;;;;;12833892;23;20021;-92
2023/07/14 06:33:01;;;;;;;6.05;0.73;;;;;;;;;;12861242;23;20088;-89
2023/07/14 06:38:06;;;;;;;2.35;1.08;;;;;;;;;;12860113;23;20020;-91
2023/07/14 06:43:11;;;;;;;0.40;0.40;;;;;;;;;;12833736;23;20021;-91
2023/07/14 06:48:14;;;;;;;1.63;0.60;;;;;;;;;;12858278;23;20036;-89
2023/07/14 06:53:18;;;;;;;3.88;1.02;;;;;;;;;;12833422;23;20519;-91
2023/07/14 06:58:25;;;;;;;1.13;0.60;;;;;;;;;;12857954;23;20021;-90
2023/07/14 07:03:29;;;;;;;0.82;0.63;;;;;;;;;;12833329;23;20092;-91
2023/07/14 07:08:32;;;;;;;1.30;0.70;;;;;;;;;;12831325;23;20024;-92
2023/07/14 07:13:37;;;;;;;1.90;0.80;;;;;;;;;;12831185;23;20029;-91
2023/07/14 07:18:40;;;;;;;1.10;0.60;;;;;;;;;;12858646;23;20028;-91
2023/07/14 07:23:44;;;;;;;2.15;0.50;;;;;;;;;;12832405;23;20025;-89
2023/07/14 07:28:49;;;;;;;2.63;0.57;;;;;;;;;;12832247;23;20029;-91
2023/07/14 07:33:52;;;;;;;0.50;0.40;;;;;;;;;;12858976;23;20021;-91
2023/07/14 07:38:56;;;;;;;1.30;0.60;;;;;;;;;;12831116;23;20028;-91
2023/07/14 07:44:02;;;;;;;1.02;0.55;;;;;;;;;;12832192;23;20495;-90
2023/07/14 07:49:05;;;;;;;1.05;0.40;;;;;;;;;;12858445;23;20024;-92
2023/07/14 07:54:09;;;;;;;2.08;0.60;;;;;;;;;;12856360;23;20024;-91
2023/07/14 07:59:15;;;;;;;3.08;0.40;;;;;;;;;;12830399;23;20078;-90
2023/07/14 08:04:19;;;;;;;0.88;0.43;;;;;;;;;;12857682;23;20083;-91
2023/07/14 08:09:23;;;;;;;1.02;0.47;;;;;;;;;;12855752;23;20402;-89
2023/07/14 08:14:28;;;;;;;3.97;0.95;;;;;;;;;;12830076;23;20017;-90
2023/07/14 08:19:31;;;;;;;1.15;0.30;;;;;;;;;;12854747;23;20029;-92
2023/07/14 08:24:34;;;;;;;1.70;0.45;;;;;;;;;;12828421;23;20356;-91
2023/07/14 08:29:39;;;;;;;1.40;0.80;;;;;;;;;;12829233;23;20052;-92
2023/07/14 08:34:43;;;;;;;1.67;0.80;;;;;;;;;;12854482;23;20050;-88
2023/07/14 08:39:46;;;;;;;2.50;0.77;;;;;;;;;;12828710;23;20025;-91
2023/07/14 08:45:07;;;;;;;1.80;0.70;;;;;;;;;;12865212;23;20017;-91
2023/07/14 08:50:17;;;;;;;0.82;0.60;;;;;;;;;;12852111;23;20544;-89
2023/07/14 08:55:24;;;;;;;1.00;0.50;;;;;;;;;;12827232;23;20016;-90
2023/07/14 09:00:34;;;;;;;2.22;0.50;;;;;;;;;;12851559;23;20090;-90
2023/07/14 09:05:42;;;;;;;2.97;0.65;;;;;;;;;;12825781;23;20454;-91
2023/07/14 09:10:58;;;;;;;1.33;0.60;;;;;;;;;;12853491;23;20489;-92
2023/07/14 09:16:04;;;;;;;1.05;0.45;;;;;;;;;;12852202;23;20024;-91
2023/07/14 09:21:17;;;;;;;1.30;0.52;;;;;;;;;;12826244;23;20028;-91
2023/07/14 09:26:25;;;;;;;2.20;0.50;;;;;;;;;;12826106;23;20531;-91
2023/07/14 09:31:40;;;;;;;2.05;0.68;;;;;;;;;;12825991;23;20024;-91
2023/07/14 09:36:43;;;;;;;0.90;0.40;;;;;;;;;;12854189;23;20478;-89
2023/07/14 09:41:50;;;;;;;0.77;0.40;;;;;;;;;;12830641;23;20028;-91
2023/07/14 09:46:56;;;;;;;1.20;0.50;;;;;;;;;;12830289;23;20024;-91
2023/07/14 09:52:11;;;;;;;3.25;0.50;;;;;;;;;;12857942;23;20028;-91
2023/07/14 09:57:14;;;;;;;1.37;0.50;;;;;;;;;;12856133;23;20028;-91
2023/07/14 10:02:30;;;;;;;1.45;0.30;;;;;;;;;;12829478;23;20318;-90
2023/07/14 10:07:41;;;;;;;1.67;0.43;;;;;;;;;;12828208;23;20088;-90
2023/07/14 10:12:47;;;;;;;1.92;0.47;;;;;;;;;;12875815;23;20028;-91
2023/07/14 10:17:54;;;;;;;0.93;0.50;;;;;;;;;;12829368;23;20572;-91
2023/07/14 10:22:59;;;;;;;1.17;0.50;;;;;;;;;;12829681;23;20024;-91
2023/07/14 10:28:11;;;;;;;0.80;0.30;;;;;;;;;;12856145;23;20024;-91
2023/07/14 10:33:22;;;;;;;1.25;0.50;;;;;;;;;;12857148;23;20052;-91
2023/07/14 10:38:30;;;;;;;1.15;0.40;;;;;;;;;;12853645;23;20020;-90
2023/07/14 10:43:38;;;;;;;1.00;0.50;;;;;;;;;;12826250;23;20313;-88
2023/07/14 10:48:47;;;;;;;2.72;0.60;;;;;;;;;;12826642;23;20027;-90
2023/07/14 10:53:55;;;;;;;1.35;0.40;;;;;;;;;;12829042;23;20075;-91
2023/07/14 10:59:05;;;;;;;2.20;0.77;;;;;;;;;;12870749;23;20369;-90
2023/07/14 11:04:20;;;;;;;1.20;0.55;;;;;;;;;;12828917;23;20079;-91
2023/07/14 11:09:23;;;;;;;0.60;0.40;;;;;;;;;;12853797;23;20087;-91
2023/07/14 11:14:35;;;;;;;4.30;0.68;;;;;;;;;;12828694;23;20079;-90
2023/07/14 11:19:55;;;;;;;1.05;0.50;;;;;;;;;;12818585;22;20028;-84
2023/07/14 11:25:09;;;;;;;1.35;0.77;;;;;;;;;;12787054;23;20039;-83
2023/07/14 11:30:16;;;;;;;0.70;0.57;;;;;;;;;;12822235;23;20036;-86
2023/07/14 11:35:31;;;;;;;1.63;0.57;;;;;;;;;;12805203;23;20076;-84
2023/07/14 11:40:40;;;;;;;2.58;0.40;;;;;;;;;;12752293;23;20021;-83
2023/07/14 11:45:55;;;;;;;1.55;0.55;;;;;;;;;;12751585;23;20032;-83
2023/07/14 11:51:09;;;;;;;2.50;0.50;;;;;;;;;;12818257;23;20025;-83
2023/07/14 11:56:21;;;;;;;0.70;0.50;;;;;;;;;;12778327;23;20420;-83
2023/07/14 12:01:28;;;;;;;1.40;0.40;;;;;;;;;;12778765;23;20028;-85
2023/07/14 12:07:10;;;;;;;1.23;0.50;;;;;;;;;;12777209;23;20021;-83
2023/07/14 12:12:19;;;;;;;0.50;0.40;;;;;;;;;;12727373;23;20040;-83
2023/07/14 12:17:48;;;;;;;0.77;0.55;;;;;;;;;;12838462;23;20079;-84
2023/07/14 12:23:16;;;;;;;3.33;0.55;;;;;;;;;;12804442;23;20017;-84
2023/07/14 12:28:26;;;;;;;0.95;0.60;;;;;;;;;;12789061;23;20016;-84
2023/07/14 12:33:30;;;;;;;2.55;0.50;;;;;;;;;;12814177;23;20031;-84
2023/07/14 12:38:33;;;;;;;1.27;0.45;;;;;;;;;;12814188;23;20028;-84
2023/07/14 12:43:41;;;;;;;2.50;0.85;;;;;;;;;;12813467;23;20020;-85
2023/07/14 12:48:45;;;;;;;2.15;0.65;;;;;;;;;;12856744;23;20539;-84
2023/07/14 12:53:58;;;;;;;1.63;0.70;;;;;;;;;;12855971;23;20020;-85
2023/07/14 12:59:04;;;;;;;1.05;0.63;;;;;;;;;;12854728;23;20043;-85
2023/07/14 13:04:09;;;;;;;1.13;0.73;;;;;;;;;;12812459;23;20751;-85
2023/07/14 13:09:21;;;;;;;0.90;0.52;;;;;;;;;;12852825;23;20460;-84
2023/07/14 13:14:31;;;;;;;1.02;0.40;;;;;;;;;;12813813;23;20103;-85
2023/07/14 13:19:39;;;;;;;1.90;0.60;;;;;;;;;;12813571;23;20055;-85
2023/07/14 13:24:42;;;;;;;1.10;0.70;;;;;;;;;;12851449;23;20552;-83
2023/07/14 13:29:58;;;;;;;1.83;0.68;;;;;;;;;;12813918;23;20033;-83
2023/07/14 13:35:06;;;;;;;1.77;0.80;;;;;;;;;;12813544;23;20021;-82
2023/07/14 13:40:20;;;;;;;3.28;0.63;;;;;;;;;;12841106;23;20021;-82
2023/07/14 13:45:31;;;;;;;0.73;0.50;;;;;;;;;;12812828;23;20550;-84
2023/07/14 13:50:35;;;;;;;1.95;0.70;;;;;;;;;;12840725;23;20531;-82
2023/07/14 13:55:38;;;;;;;1.00;0.57;;;;;;;;;;12809979;23;20079;-83
2023/07/14 14:00:44;;;;;;;0.70;0.50;;;;;;;;;;12810857;23;20071;-83
2023/07/14 14:05:47;;;;;;;1.45;0.68;;;;;;;;;;12834844;23;20028;-83
2023/07/14 14:10:51;;;;;;;1.50;0.60;;;;;;;;;;12795732;23;20025;-83
2023/07/14 14:15:56;;;;;;;1.08;0.75;;;;;;;;;;12772122;23;20025;-83
2023/07/14 14:21:00;;;;;;;3.13;0.57;;;;;;;;;;12851492;22;20104;-82
2023/07/14 14:26:03;;;;;;;1.00;0.67;;;;;;;;;;12892492;22;20024;-82
2023/07/14 14:31:11;;;;;;;1.48;0.90;;;;;;;;;;12909976;22;20058;-82
2023/07/14 14:36:14;;;;;;;1.85;1.00;;;;;;;;;;12872542;23;20016;-82
2023/07/14 14:41:28;;;;;;;2.28;1.00;;;;;;;;;;12878459;22;20058;-84
2023/07/14 14:46:32;;;;;;;5.45;1.20;;;;;;;;;;12873056;23;20024;-84
2023/07/14 14:51:37;;;;;;;;;;;;;;;;;;12907908;22;20032;-85
2023/07/14 14:56:43;;;;;;;1.47;0.63;;;;;;;;;;12873918;23;19981;-84
2023/07/14 15:01:48;;;;;;;1.17;0.80;;;;;;;;;;12879684;22;20031;-84
2023/07/14 15:06:52;;;;;;;1.88;0.98;;;;;;;;;;12877906;23;20355;-84
2023/07/14 15:11:57;;;;;;;1.67;0.80;;;;;;;;;;12904225;22;20032;-86
2023/07/14 15:17:03;;;;;;;1.42;0.90;;;;;;;;;;12857706;22;1057427;-85
2023/07/14 15:22:19;;;;;;;1.52;0.82;;;;;;;;;;12880424;22;20031;-83
2023/07/14 15:27:27;;;;;;;2.95;1.00;;;;;;;;;;12869758;23;20101;-83
2023/07/14 15:32:32;;;;;;;0.95;0.60;;;;;;;;;;12901755;22;20774;-84
2023/07/14 15:37:35;;;;;;;0.60;0.52;;;;;;;;;;12871184;22;20016;-83
2023/07/14 15:42:38;;;;;;;1.38;0.80;;;;;;;;;;12878489;22;20028;-83
2023/07/14 15:47:43;;;;;;;2.05;0.90;;;;;;;;;;12900817;22;20048;-84
2023/07/14 15:52:49;;;;;;;1.13;0.68;;;;;;;;;;12879023;22;20082;-83
2023/07/14 15:57:53;;;;;;;1.08;0.70;;;;;;;;;;12875258;22;20487;-83
2023/07/14 16:02:58;;;;;;;1.67;0.70;;;;;;;;;;12907047;22;20236;-84
2023/07/14 16:08:01;;;;;;;1.20;0.82;;;;;;;;;;12878656;22;20465;-83
2023/07/14 16:13:05;;;;;;;1.13;0.60;;;;;;;;;;12877638;22;20385;-83
2023/07/14 16:18:10;;;;;;;1.10;0.73;;;;;;;;;;12906685;22;20047;-82
2023/07/14 16:23:20;;;;;;;1.27;0.52;;;;;;;;;;12878665;22;20678;-83
2023/07/14 16:28:23;;;;;;;0.93;0.65;;;;;;;;;;12877612;22;20329;-84
2023/07/14 16:33:28;;;;;;;0.93;0.50;;;;;;;;;;12907097;22;20483;-83
2023/07/14 16:38:32;;;;;;;1.75;0.90;;;;;;;;;;12904921;22;20048;-83
2023/07/14 16:43:35;;;;;;;2.00;0.82;;;;;;;;;;12878426;22;20023;-83
2023/07/14 16:48:39;;;;;;;0.73;0.65;;;;;;;;;;12900194;22;20016;-84
2023/07/14 16:53:43;;;;;;;2.38;0.90;;;;;;;;;;12867719;22;20020;-83
2023/07/14 16:58:46;;;;;;;1.30;0.70;;;;;;;;;;12873261;22;20028;-84
2023/07/14 17:03:51;;;;;;;1.63;0.85;;;;;;;;;;12900997;22;20044;-84
2023/07/14 17:08:54;;;;;;;1.00;0.60;;;;;;;;;;12875984;22;20016;-84
2023/07/14 17:13:58;;;;;;;1.15;0.70;;;;;;;;;;12875558;22;20814;-85
2023/07/14 17:19:09;;;;;;;1.02;0.70;;;;;;;;;;12876408;22;20032;-84
2023/07/14 17:24:15;;;;;;;1.92;0.70;;;;;;;;;;12916234;22;20024;-84
2023/07/14 17:29:23;;;;;;;0.43;0.43;;;;;;;;;;12876671;22;20024;-85
2023/07/14 17:34:27;;;;;;;2.33;0.80;;;;;;;;;;12877625;22;20020;-83
2023/07/14 17:39:31;;;;;;;1.60;0.65;;;;;;;;;;12877624;22;20028;-84
2023/07/14 17:44:48;;;;;;;0.70;0.60;;;;;;;;;;12914830;22;20666;-84
2023/07/14 17:49:53;;;;;;;0.60;0.50;;;;;;;;;;12876685;22;20106;-84
2023/07/14 17:54:57;;;;;;;1.05;0.70;;;;;;;;;;12874871;22;20016;-84
2023/07/14 18:00:03;;;;;;;1.17;0.75;;;;;;;;;;12879831;22;20027;-83
2023/07/14 18:05:19;;;;;;;1.40;0.70;;;;;;;;;;12906569;22;20074;-84
2023/07/14 18:10:27;;;;;;;1.77;0.40;;;;;;;;;;12907550;22;20020;-86
2023/07/14 18:15:32;;;;;;;1.27;0.50;;;;;;;;;;12877607;23;20443;-84
2023/07/14 18:20:37;;;;;;;;;;;;;;;;;;12880129;22;20468;-86
2023/07/14 18:25:40;;;;;;;1.40;0.40;;;;;;;;;;12879066;23;20268;-84
2023/07/14 18:30:44;;;;;;;0.80;0.50;;;;;;;;;;12914512;22;20017;-84
2023/07/14 18:35:51;;;;;;;0.65;0.60;;;;;;;;;;12879020;23;20079;-84
2023/07/14 18:40:56;;;;;;;0.80;0.47;;;;;;;;;;12906528;22;20360;-86
2023/07/14 18:46:00;;;;;;;0.40;0.40;;;;;;;;;;12879872;23;20034;-84
2023/07/14 18:51:16;;;;;;;2.28;0.57;;;;;;;;;;12879501;22;20031;-84
2023/07/14 18:56:20;;;;;;;2.10;0.50;;;;;;;;;;12909979;22;20539;-86
2023/07/14 19:01:24;;;;;;;0.88;0.52;;;;;;;;;;12879192;22;20024;-83
2023/07/14 19:06:29;;;;;;;0.83;0.50;;;;;;;;;;12878348;23;20020;-84
2023/07/14 19:11:36;;;;;;;1.23;0.35;;;;;;;;;;12878191;22;20020;-86
2023/07/14 19:16:39;;;;;;;0.82;0.57;;;;;;;;;;12875768;23;20071;-82
2023/07/14 19:21:45;;;;;;;1.88;0.52;;;;;;;;;;12877984;22;20020;-82
2023/07/14 19:26:50;;;;;;;0.70;0.50;;;;;;;;;;12902890;22;20047;-82
2023/07/14 19:31:55;;;;;;;1.08;0.70;;;;;;;;;;12903318;22;20031;-83
2023/07/14 19:37:03;;;;;;;0.93;0.50;;;;;;;;;;12905186;22;20528;-82
2023/07/14 19:42:16;;;;;;;1.10;0.77;;;;;;;;;;12878320;22;20415;-82
2023/07/14 19:47:21;;;;;;;0.82;0.57;;;;;;;;;;12877506;23;20024;-83
2023/07/14 19:52:26;;;;;;;0.80;0.60;;;;;;;;;;12902999;22;20091;-82
2023/07/14 19:57:29;;;;;;;1.08;0.60;;;;;;;;;;12878732;22;20546;-83
2023/07/14 20:02:35;;;;;;;1.33;0.68;;;;;;;;;;12872767;22;20024;-82
2023/07/14 20:07:39;;;;;;;0.73;0.52;;;;;;;;;;12874316;22;20023;-83
2023/07/14 20:12:43;;;;;;;0.70;0.50;;;;;;;;;;12872219;22;20024;-82
2023/07/14 20:17:47;;;;;;;1.33;0.60;;;;;;;;;;12876837;22;20024;-83
2023/07/14 20:22:58;;;;;;;1.25;0.63;;;;;;;;;;12900167;22;20020;-82
2023/07/14 20:28:03;;;;;;;3.10;0.70;;;;;;;;;;12877735;22;20016;-82
